createdAt,value
2023-05-04T00:00:01.955Z,952.4683
2023-05-04T00:01:02.340Z,952.4911
2023-05-04T00:02:02.683Z,952.5134
2023-05-04T00:03:03.177Z,952.4916
2023-05-04T00:04:03.708Z,952.4855
2023-05-04T00:05:04.087Z,952.4733
2023-05-04T00:06:04.511Z,952.4678
2023-05-04T00:07:04.852Z,952.4572
2023-05-04T00:08:05.251Z,952.4650
2023-05-04T00:09:05.626Z,952.4811
2023-05-04T00:10:06.151Z,952.4683
2023-05-04T00:11:06.664Z,952.4733
2023-05-04T00:12:07.099Z,952.4717
2023-05-04T00:13:07.548Z,952.4311
2023-05-04T00:14:07.873Z,952.4178
2023-05-04T00:15:08.217Z,952.4056
2023-05-04T00:16:10.923Z,952.3856
2023-05-04T00:17:11.476Z,952.3778
2023-05-04T00:18:11.856Z,952.3734
2023-05-04T00:19:12.254Z,952.3666
2023-05-04T00:20:12.636Z,952.3417
2023-05-04T00:21:12.985Z,952.3322
2023-05-04T00:22:13.355Z,952.3256
2023-05-04T00:23:13.731Z,952.3189
2023-05-04T00:24:14.124Z,952.3167
2023-05-04T00:25:14.473Z,952.3261
2023-05-04T00:26:14.910Z,952.3234
2023-05-04T00:27:15.318Z,952.3372
2023-05-04T00:28:15.686Z,952.3428
2023-05-04T00:29:16.035Z,952.3539
2023-05-04T00:30:16.398Z,952.3550
2023-05-04T00:31:16.783Z,952.3572
2023-05-04T00:32:17.168Z,952.3505
2023-05-04T00:33:17.534Z,952.3605
2023-05-04T00:34:17.887Z,952.3555
2023-05-04T00:35:18.238Z,952.3483
2023-05-04T00:36:18.585Z,952.3456
2023-05-04T00:37:18.963Z,952.3544
2023-05-04T00:38:19.438Z,952.3533
2023-05-04T00:39:19.790Z,952.3511
2023-05-04T00:40:20.160Z,952.3539
2023-05-04T00:41:20.486Z,952.3555
2023-05-04T00:42:20.924Z,952.3528
2023-05-04T00:43:21.254Z,952.3384
2023-05-04T00:44:21.651Z,952.3328
2023-05-04T00:45:22.009Z,952.3066
2023-05-04T00:46:22.394Z,952.2850
2023-05-04T00:47:23.230Z,952.2811
2023-05-04T00:48:23.741Z,952.2684
2023-05-04T00:49:24.210Z,952.2617
2023-05-04T00:50:24.655Z,952.2561
2023-05-04T00:51:24.998Z,952.2561
2023-05-04T00:52:25.387Z,952.2739
2023-05-04T00:53:25.746Z,952.2861
2023-05-04T00:54:26.110Z,952.2872
2023-05-04T00:55:26.492Z,952.2983
2023-05-04T00:56:26.825Z,952.2961
2023-05-04T00:57:27.154Z,952.3033
2023-05-04T00:58:27.540Z,952.2950
2023-05-04T00:59:27.913Z,952.2872
2023-05-04T01:00:28.297Z,952.2822
2023-05-04T01:01:28.764Z,952.2756
2023-05-04T01:02:29.255Z,952.2722
2023-05-04T01:03:29.598Z,952.2695
2023-05-04T01:04:29.953Z,952.2722
2023-05-04T01:05:30.314Z,952.2684
2023-05-04T01:06:30.684Z,952.2684
2023-05-04T01:07:31.073Z,952.2650
2023-05-04T01:08:31.477Z,952.2561
2023-05-04T01:09:31.903Z,952.2400
2023-05-04T01:10:32.242Z,952.2095
2023-05-04T01:11:32.622Z,952.1945
2023-05-04T01:12:33.029Z,952.1772
2023-05-04T01:13:33.371Z,952.1678
2023-05-04T01:14:33.727Z,952.1655
2023-05-04T01:15:34.123Z,952.1605
2023-05-04T01:16:34.538Z,952.1672
2023-05-04T01:17:34.975Z,952.1622
2023-05-04T01:18:35.309Z,952.1766
2023-05-04T01:19:35.657Z,952.1716
2023-05-04T01:20:36.031Z,952.1683
2023-05-04T01:21:36.370Z,952.1528
2023-05-04T01:22:36.721Z,952.1544
2023-05-04T01:23:37.097Z,952.1522
2023-05-04T01:24:37.515Z,952.1472
2023-05-04T01:25:37.880Z,952.1350
2023-05-04T01:26:38.241Z,952.1266
2023-05-04T01:27:38.637Z,952.1372
2023-05-04T01:28:39.021Z,952.1495
2023-05-04T01:29:39.378Z,952.1611
2023-05-04T01:30:39.821Z,952.1722
2023-05-04T01:31:40.139Z,952.1850
2023-05-04T01:32:40.706Z,952.1805
2023-05-04T01:33:41.030Z,952.1861
2023-05-04T01:34:41.434Z,952.2045
2023-05-04T01:35:41.770Z,952.2145
2023-05-04T01:36:42.134Z,952.2100
2023-05-04T01:37:42.490Z,952.2050
2023-05-04T01:38:42.897Z,952.2178
2023-05-04T01:39:43.318Z,952.2400
2023-05-04T01:40:43.680Z,952.2567
2023-05-04T01:41:44.026Z,952.2867
2023-05-04T01:42:44.393Z,952.3033
2023-05-04T01:43:44.752Z,952.3161
2023-05-04T01:44:45.120Z,952.3228
2023-05-04T01:45:45.501Z,952.3072
2023-05-04T01:46:45.898Z,952.3022
2023-05-04T01:47:46.241Z,952.2966
2023-05-04T01:48:46.620Z,952.2828
2023-05-04T01:49:47.013Z,952.2767
2023-05-04T01:50:47.389Z,952.2528
2023-05-04T01:51:47.799Z,952.2344
2023-05-04T01:52:48.178Z,952.2283
2023-05-04T01:53:48.519Z,952.2261
2023-05-04T01:54:48.935Z,952.2194
2023-05-04T01:55:49.274Z,952.2167
2023-05-04T01:56:49.701Z,952.2211
2023-05-04T01:57:50.046Z,952.2289
2023-05-04T01:58:50.459Z,952.2584
2023-05-04T01:59:50.816Z,952.2650
2023-05-04T02:00:51.167Z,952.2767
2023-05-04T02:01:51.550Z,952.3105
2023-05-04T02:02:52.019Z,952.2978
2023-05-04T02:03:52.451Z,952.2961
2023-05-04T02:04:52.834Z,952.3200
2023-05-04T02:05:53.216Z,952.3322
2023-05-04T02:06:53.577Z,952.3361
2023-05-04T02:07:53.957Z,952.3239
2023-05-04T02:08:54.358Z,952.3211
2023-05-04T02:09:54.713Z,952.3278
2023-05-04T02:10:55.068Z,952.3339
2023-05-04T02:11:55.450Z,952.3422
2023-05-04T02:12:55.826Z,952.3505
2023-05-04T02:13:56.216Z,952.3605
2023-05-04T02:14:56.581Z,952.3517
2023-05-04T02:15:57.027Z,952.3516
2023-05-04T02:16:57.349Z,952.3628
2023-05-04T02:17:57.793Z,952.3594
2023-05-04T02:18:58.164Z,952.3561
2023-05-04T02:19:58.536Z,952.3633
2023-05-04T02:20:58.944Z,952.3594
2023-05-04T02:21:59.310Z,952.3566
2023-05-04T02:22:59.642Z,952.3483
2023-05-04T02:24:00.058Z,952.3611
2023-05-04T02:25:00.445Z,952.3406
2023-05-04T02:26:00.817Z,952.3061
2023-05-04T02:27:01.155Z,952.3066
2023-05-04T02:28:01.542Z,952.2822
2023-05-04T02:29:01.943Z,952.2672
2023-05-04T02:30:02.527Z,952.2806
2023-05-04T02:31:03.007Z,952.3028
2023-05-04T02:32:03.580Z,952.3128
2023-05-04T02:33:04.020Z,952.3472
2023-05-04T02:34:04.393Z,952.3594
2023-05-04T02:35:04.790Z,952.3528
2023-05-04T02:36:05.157Z,952.3483
2023-05-04T02:37:07.312Z,952.3422
2023-05-04T02:38:07.890Z,952.3311
2023-05-04T02:39:08.297Z,952.3300
2023-05-04T02:40:08.649Z,952.3317
2023-05-04T02:41:08.994Z,952.3306
2023-05-04T02:42:09.382Z,952.3284
2023-05-04T02:43:09.721Z,952.3306
2023-05-04T02:44:10.124Z,952.3372
2023-05-04T02:45:10.563Z,952.3200
2023-05-04T02:46:10.953Z,952.3050
2023-05-04T02:47:11.270Z,952.2972
2023-05-04T02:48:11.639Z,952.3122
2023-05-04T02:49:11.995Z,952.3094
2023-05-04T02:50:12.408Z,952.3116
2023-05-04T02:51:12.750Z,952.3156
2023-05-04T02:52:13.143Z,952.3400
2023-05-04T02:53:13.497Z,952.3234
2023-05-04T02:54:13.899Z,952.3206
2023-05-04T02:55:14.308Z,952.3350
2023-05-04T02:56:14.682Z,952.3295
2023-05-04T02:57:15.054Z,952.3111
2023-05-04T02:58:15.446Z,952.3111
2023-05-04T02:59:15.836Z,952.3134
2023-05-04T03:00:16.323Z,952.3228
2023-05-04T03:01:16.688Z,952.3116
2023-05-04T03:02:17.036Z,952.2994
2023-05-04T03:03:17.398Z,952.2795
2023-05-04T03:04:17.831Z,952.2667
2023-05-04T03:05:18.168Z,952.2572
2023-05-04T03:06:18.562Z,952.2578
2023-05-04T03:07:18.959Z,952.2478
2023-05-04T03:08:19.327Z,952.2444
2023-05-04T03:09:19.672Z,952.2300
2023-05-04T03:10:20.085Z,952.2361
2023-05-04T03:11:20.425Z,952.2484
2023-05-04T03:12:20.837Z,952.2661
2023-05-04T03:13:21.232Z,952.2711
2023-05-04T03:14:21.599Z,952.2745
2023-05-04T03:15:21.994Z,952.2750
2023-05-04T03:16:22.524Z,952.2495
2023-05-04T03:17:22.847Z,952.2466
2023-05-04T03:18:23.278Z,952.2383
2023-05-04T03:19:23.622Z,952.2405
2023-05-04T03:20:24.029Z,952.2355
2023-05-04T03:21:24.406Z,952.2350
2023-05-04T03:22:24.801Z,952.2255
2023-05-04T03:23:25.233Z,952.2378
2023-05-04T03:24:25.593Z,952.2455
2023-05-04T03:25:25.961Z,952.2534
2023-05-04T03:26:26.346Z,952.2516
2023-05-04T03:27:26.784Z,952.2505
2023-05-04T03:28:27.146Z,952.2522
2023-05-04T03:29:27.561Z,952.2572
2023-05-04T03:30:27.973Z,952.2639
2023-05-04T03:31:28.308Z,952.2811
2023-05-04T03:32:28.710Z,952.2844
2023-05-04T03:33:29.062Z,952.3000
2023-05-04T03:34:29.460Z,952.3033
2023-05-04T03:35:29.813Z,952.2905
2023-05-04T03:36:30.232Z,952.2717
2023-05-04T03:37:30.624Z,952.2584
2023-05-04T03:38:30.987Z,952.2589
2023-05-04T03:39:31.344Z,952.2472
2023-05-04T03:40:31.734Z,952.2411
2023-05-04T03:41:32.131Z,952.2239
2023-05-04T03:42:32.511Z,952.2050
2023-05-04T03:43:32.881Z,952.1789
2023-05-04T03:44:33.320Z,952.1605
2023-05-04T03:45:33.665Z,952.1317
2023-05-04T03:46:34.117Z,952.1266
2023-05-04T03:47:34.465Z,952.1239
2023-05-04T03:48:34.866Z,952.1245
2023-05-04T03:49:35.229Z,952.1261
2023-05-04T03:50:35.624Z,952.1245
2023-05-04T03:51:35.972Z,952.1266
2023-05-04T03:52:36.372Z,952.1356
2023-05-04T03:53:36.783Z,952.1417
2023-05-04T03:54:37.195Z,952.1434
2023-05-04T03:55:37.591Z,952.1495
2023-05-04T03:56:37.963Z,952.1594
2023-05-04T03:57:38.328Z,952.1711
2023-05-04T03:58:38.724Z,952.1722
2023-05-04T03:59:39.122Z,952.1772
2023-05-04T04:00:39.557Z,952.1678
2023-05-04T04:01:39.915Z,952.1605
2023-05-04T04:02:40.405Z,952.1605
2023-05-04T04:03:40.873Z,952.1622
2023-05-04T04:04:41.307Z,952.1739
2023-05-04T04:05:41.723Z,952.2011
2023-05-04T04:06:43.449Z,952.2200
2023-05-04T04:07:43.923Z,952.2366
2023-05-04T04:08:44.337Z,952.2444
2023-05-04T04:09:44.736Z,952.2550
2023-05-04T04:10:45.096Z,952.2472
2023-05-04T04:11:45.465Z,952.2439
2023-05-04T04:12:45.889Z,952.2383
2023-05-04T04:13:46.223Z,952.2228
2023-05-04T04:14:46.696Z,952.2167
2023-05-04T04:15:47.139Z,952.2178
2023-05-04T04:16:47.561Z,952.2178
2023-05-04T04:17:47.926Z,952.2239
2023-05-04T04:18:48.302Z,952.2244
2023-05-04T04:19:48.673Z,952.2272
2023-05-04T04:20:49.051Z,952.2178
2023-05-04T04:21:49.390Z,952.2133
2023-05-04T04:22:49.800Z,952.2089
2023-05-04T04:23:50.157Z,952.1989
2023-05-04T04:24:50.585Z,952.1934
2023-05-04T04:25:50.943Z,952.1906
2023-05-04T04:26:51.317Z,952.1750
2023-05-04T04:27:51.706Z,952.1655
2023-05-04T04:28:52.065Z,952.1661
2023-05-04T04:29:52.461Z,952.1650
2023-05-04T04:30:52.912Z,952.1683
2023-05-04T04:31:53.291Z,952.1850
2023-05-04T04:32:53.698Z,952.2017
2023-05-04T04:33:54.069Z,952.2167
2023-05-04T04:34:54.442Z,952.2344
2023-05-04T04:35:54.799Z,952.2294
2023-05-04T04:36:55.192Z,952.2366
2023-05-04T04:37:55.545Z,952.2522
2023-05-04T04:38:56.020Z,952.2511
2023-05-04T04:39:56.377Z,952.2656
2023-05-04T04:40:56.790Z,952.2756
2023-05-04T04:41:57.148Z,952.2950
2023-05-04T04:42:57.562Z,952.3011
2023-05-04T04:43:57.966Z,952.2989
2023-05-04T04:44:58.396Z,952.3028
2023-05-04T04:45:58.793Z,952.2994
2023-05-04T04:46:59.144Z,952.3055
2023-05-04T04:47:59.551Z,952.3050
2023-05-04T04:48:59.908Z,952.3100
2023-05-04T04:50:00.274Z,952.3245
2023-05-04T04:51:00.674Z,952.3356
2023-05-04T04:52:01.016Z,952.3406
2023-05-04T04:53:01.415Z,952.3494
2023-05-04T04:54:01.774Z,952.3528
2023-05-04T04:55:02.186Z,952.3583
2023-05-04T04:56:02.556Z,952.3650
2023-05-04T04:57:02.918Z,952.3672
2023-05-04T04:58:03.334Z,952.3806
2023-05-04T04:59:03.724Z,952.3878
2023-05-04T05:00:04.574Z,952.3978
2023-05-04T05:01:05.142Z,952.4067
2023-05-04T05:02:05.460Z,952.4144
2023-05-04T05:03:05.869Z,952.4205
2023-05-04T05:04:06.282Z,952.4178
2023-05-04T05:05:06.828Z,952.4200
2023-05-04T05:06:07.213Z,952.4355
2023-05-04T05:07:07.663Z,952.4328
2023-05-04T05:08:08.048Z,952.4328
2023-05-04T05:09:08.440Z,952.4261
2023-05-04T05:10:08.952Z,952.4333
2023-05-04T05:11:09.293Z,952.4439
2023-05-04T05:12:09.671Z,952.4389
2023-05-04T05:13:10.122Z,952.4372
2023-05-04T05:14:10.494Z,952.4322
2023-05-04T05:15:10.857Z,952.4411
2023-05-04T05:16:11.254Z,952.4372
2023-05-04T05:17:11.606Z,952.4428
2023-05-04T05:18:12.063Z,952.4450
2023-05-04T05:19:12.414Z,952.4595
2023-05-04T05:20:12.807Z,952.4755
2023-05-04T05:21:13.208Z,952.5022
2023-05-04T05:22:13.584Z,952.5256
2023-05-04T05:23:13.997Z,952.5494
2023-05-04T05:24:14.361Z,952.5684
2023-05-04T05:25:14.750Z,952.5811
2023-05-04T05:26:15.148Z,952.5944
2023-05-04T05:27:15.517Z,952.6033
2023-05-04T05:28:15.917Z,952.5861
2023-05-04T05:29:16.289Z,952.5945
2023-05-04T05:30:16.660Z,952.6050
2023-05-04T05:31:17.009Z,952.6155
2023-05-04T05:32:17.391Z,952.6189
2023-05-04T05:33:17.898Z,952.6122
2023-05-04T05:34:18.272Z,952.6144
2023-05-04T05:35:18.632Z,952.6372
2023-05-04T05:36:19.000Z,952.6755
2023-05-04T05:37:19.423Z,952.6694
2023-05-04T05:38:19.785Z,952.6811
2023-05-04T05:39:20.178Z,952.6844
2023-05-04T05:40:20.653Z,952.6906
2023-05-04T05:41:21.018Z,952.6772
2023-05-04T05:42:21.365Z,952.6855
2023-05-04T05:43:21.733Z,952.7100
2023-05-04T05:44:22.138Z,952.7239
2023-05-04T05:45:22.546Z,952.7244
2023-05-04T05:46:22.996Z,952.7172
2023-05-04T05:47:23.394Z,952.7233
2023-05-04T05:48:23.697Z,952.7366
2023-05-04T05:49:24.128Z,952.7372
2023-05-04T05:50:24.479Z,952.7389
2023-05-04T05:51:24.880Z,952.7461
2023-05-04T05:52:25.243Z,952.7439
2023-05-04T05:53:25.667Z,952.7416
2023-05-04T05:54:26.036Z,952.7233
2023-05-04T05:55:26.417Z,952.6961
2023-05-04T05:56:26.822Z,952.6794
2023-05-04T05:57:27.213Z,952.6811
2023-05-04T05:58:27.631Z,952.6850
2023-05-04T05:59:28.015Z,952.6900
2023-05-04T06:00:28.422Z,952.6828
2023-05-04T06:01:28.877Z,952.6705
2023-05-04T06:02:29.257Z,952.6616
2023-05-04T06:03:30.782Z,952.6661
2023-05-04T06:04:31.212Z,952.6655
2023-05-04T06:05:32.572Z,952.6628
2023-05-04T06:06:32.968Z,952.6578
2023-05-04T06:07:33.337Z,952.6666
2023-05-04T06:08:33.754Z,952.6655
2023-05-04T06:09:34.165Z,952.6650
2023-05-04T06:10:34.524Z,952.6700
2023-05-04T06:11:34.900Z,952.6828
2023-05-04T06:12:35.294Z,952.6906
2023-05-04T06:13:35.726Z,952.6900
2023-05-04T06:14:36.118Z,952.6861
2023-05-04T06:15:36.542Z,952.6655
2023-05-04T06:16:36.967Z,952.6395
2023-05-04T06:17:37.350Z,952.6339
2023-05-04T06:18:37.682Z,952.6250
2023-05-04T06:19:38.113Z,952.6194
2023-05-04T06:20:38.489Z,952.6116
2023-05-04T06:21:38.894Z,952.5922
2023-05-04T06:22:39.259Z,952.5983
2023-05-04T06:23:39.624Z,952.6050
2023-05-04T06:24:40.040Z,952.5994
2023-05-04T06:25:40.399Z,952.6005
2023-05-04T06:26:40.820Z,952.5994
2023-05-04T06:27:41.197Z,952.6016
2023-05-04T06:28:41.558Z,952.6022
2023-05-04T06:29:41.982Z,952.5983
2023-05-04T06:30:42.324Z,952.6061
2023-05-04T06:31:42.813Z,952.5978
2023-05-04T06:32:43.223Z,952.5878
2023-05-04T06:33:43.615Z,952.5817
2023-05-04T06:34:43.966Z,952.5883
2023-05-04T06:35:44.365Z,952.5867
2023-05-04T06:36:44.823Z,952.5872
2023-05-04T06:37:45.258Z,952.5728
2023-05-04T06:38:45.638Z,952.5483
2023-05-04T06:39:45.978Z,952.5500
2023-05-04T06:40:46.397Z,952.5489
2023-05-04T06:41:46.826Z,952.5428
2023-05-04T06:42:47.165Z,952.5439
2023-05-04T06:43:47.520Z,952.5522
2023-05-04T06:44:47.923Z,952.5572
2023-05-04T06:45:48.291Z,952.5544
2023-05-04T06:46:48.693Z,952.5522
2023-05-04T06:47:49.092Z,952.5650
2023-05-04T06:48:49.464Z,952.5850
2023-05-04T06:49:49.812Z,952.5889
2023-05-04T06:50:50.230Z,952.6066
2023-05-04T06:51:50.636Z,952.6166
2023-05-04T06:52:51.008Z,952.6194
2023-05-04T06:53:51.408Z,952.6306
2023-05-04T06:54:51.840Z,952.6445
2023-05-04T06:55:52.195Z,952.6461
2023-05-04T06:56:52.624Z,952.6378
2023-05-04T06:57:53.033Z,952.6422
2023-05-04T06:58:53.406Z,952.6322
2023-05-04T06:59:53.801Z,952.6372
2023-05-04T07:00:54.173Z,952.6255
2023-05-04T07:01:54.581Z,952.6261
2023-05-04T07:02:54.973Z,952.6300
2023-05-04T07:03:55.393Z,952.6284
2023-05-04T07:04:55.761Z,952.6411
2023-05-04T07:05:56.191Z,952.6583
2023-05-04T07:06:56.563Z,952.6650
2023-05-04T07:07:56.928Z,952.6644
2023-05-04T07:08:57.307Z,952.6589
2023-05-04T07:09:57.717Z,952.6594
2023-05-04T07:10:58.109Z,952.6644
2023-05-04T07:11:58.483Z,952.6722
2023-05-04T07:12:58.972Z,952.6789
2023-05-04T07:13:59.282Z,952.6811
2023-05-04T07:14:59.700Z,952.6783
2023-05-04T07:16:00.166Z,952.6750
2023-05-04T07:17:00.557Z,952.6722
2023-05-04T07:18:00.892Z,952.6733
2023-05-04T07:19:01.277Z,952.6866
2023-05-04T07:20:01.820Z,952.6878
2023-05-04T07:21:21.882Z,952.6889
2023-05-04T07:22:05.247Z,952.6928
2023-05-04T07:23:05.655Z,952.6847
2023-05-04T07:24:06.087Z,952.6666
2023-05-04T07:25:06.455Z,952.6800
2023-05-04T07:26:06.797Z,952.6866
2023-05-04T07:27:07.215Z,952.6733
2023-05-04T07:28:07.569Z,952.6655
2023-05-04T07:29:07.984Z,952.6616
2023-05-04T07:30:08.411Z,952.6622
2023-05-04T07:31:08.804Z,952.6555
2023-05-04T07:32:09.323Z,952.6350
2023-05-04T07:33:09.780Z,952.6345
2023-05-04T07:34:10.198Z,952.6339
2023-05-04T07:35:10.618Z,952.5994
2023-05-04T07:36:11.015Z,952.5967
2023-05-04T07:37:11.522Z,952.5850
2023-05-04T07:38:11.989Z,952.5656
2023-05-04T07:39:12.425Z,952.5622
2023-05-04T07:40:12.805Z,952.5611
2023-05-04T07:41:13.239Z,952.5711
2023-05-04T07:42:13.647Z,952.5634
2023-05-04T07:43:14.013Z,952.5444
2023-05-04T07:44:14.494Z,952.5317
2023-05-04T07:45:14.907Z,952.5139
2023-05-04T07:46:15.396Z,952.5000
2023-05-04T07:47:15.862Z,952.5045
2023-05-04T07:48:17.806Z,952.5122
2023-05-04T07:49:18.488Z,952.5283
2023-05-04T07:50:18.904Z,952.5306
2023-05-04T07:51:19.334Z,952.5272
2023-05-04T07:52:19.744Z,952.5234
2023-05-04T07:53:20.187Z,952.5250
2023-05-04T07:54:22.828Z,952.5311
2023-05-04T07:55:23.523Z,952.5295
2023-05-04T07:56:23.978Z,952.5256
2023-05-04T07:57:24.382Z,952.5122
2023-05-04T07:58:24.766Z,952.5195
2023-05-04T07:59:25.223Z,952.5256
2023-05-04T08:00:25.631Z,952.5339
2023-05-04T08:01:26.082Z,952.5328
2023-05-04T08:02:26.622Z,952.5289
2023-05-04T08:03:27.039Z,952.5383
2023-05-04T08:04:27.433Z,952.5500
2023-05-04T08:05:27.875Z,952.5394
2023-05-04T08:06:28.339Z,952.5250
2023-05-04T08:07:28.754Z,952.5078
2023-05-04T08:08:29.220Z,952.4933
2023-05-04T08:09:29.622Z,952.4984
2023-05-04T08:10:30.009Z,952.4989
2023-05-04T08:11:30.507Z,952.4961
2023-05-04T08:12:30.958Z,952.4911
2023-05-04T08:13:31.328Z,952.4889
2023-05-04T08:14:31.785Z,952.4805
2023-05-04T08:15:32.197Z,952.4628
2023-05-04T08:16:32.653Z,952.4389
2023-05-04T08:17:33.083Z,952.4155
2023-05-04T08:18:33.493Z,952.3972
2023-05-04T08:19:33.965Z,952.3967
2023-05-04T08:20:34.434Z,952.4100
2023-05-04T08:21:34.766Z,952.4072
2023-05-04T08:22:35.223Z,952.3917
2023-05-04T08:23:35.629Z,952.3884
2023-05-04T08:24:36.097Z,952.3961
2023-05-04T08:25:36.520Z,952.4017
2023-05-04T08:26:36.892Z,952.4011
2023-05-04T08:27:37.334Z,952.4089
2023-05-04T08:28:37.736Z,952.4255
2023-05-04T08:29:38.178Z,952.4289
2023-05-04T08:30:38.639Z,952.4384
2023-05-04T08:31:39.059Z,952.4672
2023-05-04T08:32:39.480Z,952.4617
2023-05-04T08:33:39.876Z,952.4583
2023-05-04T08:34:40.255Z,952.4656
2023-05-04T08:35:40.726Z,952.4855
2023-05-04T08:36:41.087Z,952.5056
2023-05-04T08:37:41.541Z,952.5106
2023-05-04T08:38:41.985Z,952.5145
2023-05-04T08:39:42.372Z,952.4922
2023-05-04T08:40:42.833Z,952.4861
2023-05-04T08:41:43.260Z,952.4644
2023-05-04T08:42:43.654Z,952.4339
2023-05-04T08:43:44.090Z,952.4300
2023-05-04T08:44:44.481Z,952.4322
2023-05-04T08:45:44.961Z,952.4122
2023-05-04T08:46:45.379Z,952.4011
2023-05-04T08:47:45.845Z,952.3800
2023-05-04T08:48:46.227Z,952.3639
2023-05-04T08:49:46.626Z,952.3395
2023-05-04T08:50:47.044Z,952.3272
2023-05-04T08:51:47.481Z,952.3222
2023-05-04T08:52:47.883Z,952.3156
2023-05-04T08:53:48.301Z,952.3211
2023-05-04T08:54:48.700Z,952.3267
2023-05-04T08:55:49.147Z,952.3328
2023-05-04T08:56:49.549Z,952.3356
2023-05-04T08:57:51.158Z,952.3522
2023-05-04T08:58:51.626Z,952.3734
2023-05-04T08:59:52.079Z,952.3605
2023-05-04T09:00:52.579Z,952.3778
2023-05-04T09:01:53.025Z,952.3834
2023-05-04T09:02:53.540Z,952.3800
2023-05-04T09:03:54.111Z,952.3950
2023-05-04T09:04:54.583Z,952.4261
2023-05-04T09:05:55.052Z,952.4239
2023-05-04T09:06:55.471Z,952.4189
2023-05-04T09:07:55.917Z,952.4150
2023-05-04T09:08:56.334Z,952.4028
2023-05-04T09:09:56.739Z,952.3961
2023-05-04T09:10:57.139Z,952.3945
2023-05-04T09:11:57.578Z,952.3939
2023-05-04T09:12:58.200Z,952.3694
2023-05-04T09:13:58.627Z,952.3639
2023-05-04T09:14:59.025Z,952.3522
2023-05-04T09:15:59.462Z,952.3461
2023-05-04T09:16:59.877Z,952.3422
2023-05-04T09:18:00.479Z,952.3439
2023-05-04T09:19:00.867Z,952.3505
2023-05-04T09:20:01.398Z,952.3406
2023-05-04T09:21:01.824Z,952.3345
2023-05-04T09:22:02.205Z,952.3256
2023-05-04T09:23:02.589Z,952.3195
2023-05-04T09:24:03.008Z,952.3111
2023-05-04T09:25:03.661Z,952.3134
2023-05-04T09:26:04.175Z,952.3234
2023-05-04T09:27:04.580Z,952.3306
2023-05-04T09:28:05.098Z,952.3222
2023-05-04T09:29:05.502Z,952.3322
2023-05-04T09:30:05.934Z,952.3295
2023-05-04T09:31:06.356Z,952.3306
2023-05-04T09:32:06.770Z,952.3478
2023-05-04T09:33:07.162Z,952.3750
2023-05-04T09:34:07.582Z,952.3578
2023-05-04T09:35:09.519Z,952.3639
2023-05-04T09:36:11.107Z,952.3483
2023-05-04T09:37:11.558Z,952.3222
2023-05-04T09:38:11.950Z,952.3145
2023-05-04T09:39:12.391Z,952.3134
2023-05-04T09:40:12.797Z,952.3278
2023-05-04T09:41:13.182Z,952.3345
2023-05-04T09:42:13.583Z,952.3345
2023-05-04T09:43:13.976Z,952.3334
2023-05-04T09:44:14.441Z,952.3417
2023-05-04T09:45:14.877Z,952.3450
2023-05-04T09:46:15.292Z,952.3267
2023-05-04T09:47:15.681Z,952.3350
2023-05-04T09:48:16.097Z,952.3256
2023-05-04T09:49:16.489Z,952.3083
2023-05-04T09:50:20.124Z,952.3011
2023-05-04T09:51:17.932Z,952.2933
2023-05-04T09:52:18.323Z,952.2947
2023-05-04T09:53:18.770Z,952.2950
2023-05-04T09:54:19.177Z,952.2889
2023-05-04T09:55:19.606Z,952.2800
2023-05-04T09:56:20.015Z,952.2689
2023-05-04T09:57:20.438Z,952.2839
2023-05-04T09:58:20.847Z,952.2783
2023-05-04T09:59:21.278Z,952.2911
2023-05-04T10:00:21.688Z,952.3116
2023-05-04T10:01:22.138Z,952.3050
2023-05-04T10:02:23.525Z,952.2861
2023-05-04T10:03:24.175Z,952.3094
2023-05-04T10:04:24.572Z,952.3206
2023-05-04T10:05:25.048Z,952.3189
2023-05-04T10:06:25.455Z,952.3178
2023-05-04T10:07:25.850Z,952.3295
2023-05-04T10:08:26.244Z,952.3489
2023-05-04T10:09:26.680Z,952.3456
2023-05-04T10:10:27.156Z,952.3467
2023-05-04T10:11:27.576Z,952.3511
2023-05-04T10:12:28.001Z,952.3444
2023-05-04T10:13:28.394Z,952.3245
2023-05-04T10:14:28.810Z,952.3333
2023-05-04T10:15:29.212Z,952.3211
2023-05-04T10:16:29.813Z,952.3111
2023-05-04T10:17:30.176Z,952.3050
2023-05-04T10:18:30.594Z,952.3122
2023-05-04T10:19:30.995Z,952.3000
2023-05-04T10:20:31.409Z,952.2817
2023-05-04T10:21:31.828Z,952.2795
2023-05-04T10:22:32.293Z,952.2811
2023-05-04T10:23:32.698Z,952.2539
2023-05-04T10:24:33.090Z,952.2472
2023-05-04T10:25:33.517Z,952.2333
2023-05-04T10:26:33.952Z,952.2228
2023-05-04T10:27:34.349Z,952.2017
2023-05-04T10:28:34.783Z,952.1950
2023-05-04T10:29:35.192Z,952.1855
2023-05-04T10:30:35.609Z,952.1694
2023-05-04T10:31:36.072Z,952.1572
2023-05-04T10:32:36.479Z,952.1716
2023-05-04T10:33:36.883Z,952.1544
2023-05-04T10:34:37.297Z,952.1372
2023-05-04T10:35:37.712Z,952.1261
2023-05-04T10:36:38.148Z,952.1133
2023-05-04T10:37:38.549Z,952.1155
2023-05-04T10:38:39.014Z,952.1189
2023-05-04T10:39:39.407Z,952.1133
2023-05-04T10:40:39.800Z,952.0933
2023-05-04T10:41:40.250Z,952.1005
2023-05-04T10:42:40.654Z,952.0795
2023-05-04T10:43:41.080Z,952.0656
2023-05-04T10:44:41.461Z,952.0533
2023-05-04T10:45:41.930Z,952.0405
2023-05-04T10:46:42.454Z,952.0217
2023-05-04T10:47:42.898Z,952.0278
2023-05-04T10:48:43.302Z,952.0056
2023-05-04T10:49:43.739Z,951.9661
2023-05-04T10:50:44.174Z,951.9689
2023-05-04T10:51:49.457Z,951.9528
2023-05-04T10:52:47.729Z,951.9189
2023-05-04T10:53:48.171Z,951.9253
2023-05-04T10:54:48.517Z,951.9078
2023-05-04T10:55:48.959Z,951.9033
2023-05-04T10:56:49.343Z,951.8889
2023-05-04T10:57:49.785Z,951.8934
2023-05-04T10:58:50.181Z,951.8766
2023-05-04T10:59:50.609Z,951.8572
2023-05-04T11:00:51.038Z,951.8639
2023-05-04T11:01:51.447Z,951.8494
2023-05-04T11:02:52.033Z,951.8322
2023-05-04T11:03:52.542Z,951.8222
2023-05-04T11:04:52.910Z,951.8234
2023-05-04T11:05:53.364Z,951.8028
2023-05-04T11:06:53.754Z,951.7811
2023-05-04T11:07:54.170Z,951.7455
2023-05-04T11:08:54.566Z,951.7117
2023-05-04T11:09:54.962Z,951.6689
2023-05-04T11:10:55.431Z,951.6367
2023-05-04T11:11:55.837Z,951.6133
2023-05-04T11:12:56.245Z,951.6122
2023-05-04T11:13:56.657Z,951.6089
2023-05-04T11:14:57.074Z,951.6083
2023-05-04T11:15:57.486Z,951.6078
2023-05-04T11:16:57.965Z,951.6133
2023-05-04T11:17:58.383Z,951.6133
2023-05-04T11:18:58.884Z,951.6350
2023-05-04T11:19:59.214Z,951.6411
2023-05-04T11:20:59.652Z,951.6367
2023-05-04T11:22:00.108Z,951.6555
2023-05-04T11:23:00.502Z,951.6945
2023-05-04T11:24:00.923Z,951.6878
2023-05-04T11:25:01.317Z,951.6700
2023-05-04T11:26:01.813Z,951.6811
2023-05-04T11:27:02.181Z,951.6672
2023-05-04T11:28:02.641Z,951.6733
2023-05-04T11:29:03.057Z,951.6639
2023-05-04T11:30:03.559Z,951.6533
2023-05-04T11:31:04.027Z,951.6445
2023-05-04T11:32:04.478Z,951.6367
2023-05-04T11:33:04.879Z,951.6300
2023-05-04T11:34:05.378Z,951.6367
2023-05-04T11:35:05.897Z,951.6334
2023-05-04T11:36:06.392Z,951.6094
2023-05-04T11:37:06.806Z,951.5767
2023-05-04T11:38:07.250Z,951.5672
2023-05-04T11:39:07.703Z,951.5939
2023-05-04T11:40:08.109Z,951.5684
2023-05-04T11:41:08.486Z,951.5450
2023-05-04T11:42:08.964Z,951.5578
2023-05-04T11:43:09.356Z,951.5505
2023-05-04T11:44:09.763Z,951.5322
2023-05-04T11:45:10.240Z,951.5439
2023-05-04T11:46:10.657Z,951.5195
2023-05-04T11:47:11.007Z,951.4855
2023-05-04T11:48:11.605Z,951.4783
2023-05-04T11:49:11.977Z,951.4722